createdAt,value
2016-02-29T00:00:36.309Z,4.08
2016-02-29T00:01:36.295Z,4.06
2016-02-29T00:02:36.298Z,4.08
2016-02-29T00:03:36.301Z,4.23
2016-02-29T00:04:36.303Z,4.04
2016-02-29T00:05:36.134Z,4.2
2016-02-29T00:06:36.278Z,4.08
2016-02-29T00:07:36.280Z,4.22
2016-02-29T00:08:36.330Z,4.19
2016-02-29T00:09:36.270Z,4.19
2016-02-29T00:10:36.289Z,4.19
2016-02-29T00:11:36.276Z,4.19
2016-02-29T00:12:36.262Z,4.16
2016-02-29T00:13:36.109Z,4.17
2016-02-29T00:14:36.253Z,4.19
2016-02-29T00:15:36.270Z,4.19
2016-02-29T00:16:36.242Z,4.17
2016-02-29T00:17:36.261Z,4.22
2016-02-29T00:18:36.248Z,4.19
2016-02-29T00:19:36.250Z,4.22
2016-02-29T00:20:36.253Z,4.24
2016-02-29T00:21:36.255Z,4.23
2016-02-29T00:22:36.227Z,4.2
2016-02-29T00:23:36.261Z,4.23
2016-02-29T00:24:36.216Z,4.19
2016-02-29T00:25:36.219Z,4.22
2016-02-29T00:26:36.206Z,4.17
2016-02-29T00:27:36.225Z,4.28
2016-02-29T00:28:36.227Z,4.2
2016-02-29T00:29:36.262Z,4.19
2016-02-29T00:30:36.191Z,4.17
2016-02-29T00:31:36.193Z,4.22
2016-02-29T00:32:36.196Z,4.19
2016-02-29T00:33:36.167Z,4.12
2016-02-29T00:34:36.170Z,4.19
2016-02-29T00:35:36.173Z,4.14
2016-02-29T00:36:36.175Z,4.23
2016-02-29T00:37:36.178Z,4.19
2016-02-29T00:38:36.181Z,4.24
2016-02-29T00:39:36.183Z,4.19
2016-02-29T00:40:36.186Z,4.19
2016-02-29T00:41:36.205Z,4.14
2016-02-29T00:42:36.145Z,4.12
2016-02-29T00:43:36.147Z,4.2
2016-02-29T00:44:36.150Z,4.13
2016-02-29T00:45:36.153Z,4.13
2016-02-29T00:46:36.155Z,4.13
2016-02-29T00:47:36.143Z,4.19
2016-02-29T00:48:36.130Z,4.16
2016-02-29T00:49:36.116Z,4.31
2016-02-29T00:50:36.119Z,4.19
2016-02-29T00:51:36.122Z,4.14
2016-02-29T00:52:36.109Z,4.12
2016-02-29T00:53:36.127Z,4.19
2016-02-29T00:54:36.130Z,4.17
2016-02-29T00:55:36.117Z,4.19
2016-02-29T00:56:36.120Z,4.23
2016-02-29T00:57:36.107Z,4.22
2016-02-29T00:58:36.110Z,4.24
2016-02-29T00:59:36.097Z,4.22
2016-02-29T01:00:36.100Z,4.22
2016-02-29T01:01:36.102Z,4.24
2016-02-29T01:02:36.089Z,4.22
2016-02-29T01:03:36.076Z,4.14
2016-02-29T01:04:36.064Z,4.19
2016-02-29T01:05:36.081Z,4.23
2016-02-29T01:06:36.069Z,4.22
2016-02-29T01:07:36.072Z,4.22
2016-02-29T01:08:36.058Z,4.22
2016-02-29T01:09:39.061Z,4.23
2016-02-29T01:10:36.047Z,4.22
2016-02-29T01:11:36.050Z,4.22
2016-02-29T01:12:36.053Z,4.19
2016-02-29T01:13:36.056Z,4.2
2016-02-29T01:14:36.028Z,4.17
2016-02-29T01:15:36.030Z,4.22
2016-02-29T01:16:36.033Z,4.13
2016-02-29T01:17:36.036Z,4.1
2016-02-29T01:18:36.039Z,4.16
2016-02-29T01:19:36.026Z,4.13
2016-02-29T01:20:35.996Z,4.16
2016-02-29T01:21:36.000Z,4.16
2016-02-29T01:22:36.018Z,4.19
2016-02-29T01:23:36.005Z,4.12
2016-02-29T01:24:35.993Z,4.23
2016-02-29T01:25:35.995Z,4.14
2016-02-29T01:26:35.998Z,4.19
2016-02-29T01:27:36.001Z,4.16
2016-02-29T01:28:35.988Z,4.14
2016-02-29T01:29:35.989Z,4.12
2016-02-29T01:30:35.992Z,4.16
2016-02-29T01:31:35.964Z,4.19
2016-02-29T01:32:35.967Z,4.16
2016-02-29T01:33:35.969Z,4.22
2016-02-29T01:34:35.801Z,4.23
2016-02-29T01:35:35.975Z,4.3
2016-02-29T01:36:35.947Z,4.26
2016-02-29T01:37:35.950Z,4.28
2016-02-29T01:38:35.936Z,4.28
2016-02-29T01:39:35.938Z,4.24
2016-02-29T01:40:35.972Z,4.22
2016-02-29T01:41:35.928Z,4.23
2016-02-29T01:42:35.947Z,4.26
2016-02-29T01:43:35.918Z,4.23
2016-02-29T01:44:35.968Z,4.22
2016-02-29T01:45:35.908Z,4.3
2016-02-29T01:46:35.942Z,4.17
2016-02-29T01:47:35.897Z,4.22
2016-02-29T01:48:35.900Z,4.17
2016-02-29T01:49:35.903Z,4.23
2016-02-29T01:50:35.890Z,4.28
2016-02-29T01:51:35.893Z,4.23
2016-02-29T01:52:35.740Z,4.19
2016-02-29T01:53:35.883Z,4.17
2016-02-29T01:54:35.886Z,4.14
2016-02-29T01:55:35.888Z,4.22
2016-02-29T01:56:35.876Z,4.22
2016-02-29T01:57:35.863Z,4.26
2016-02-29T01:58:35.865Z,4.26
2016-02-29T01:59:35.868Z,4.28
2016-02-29T02:00:35.852Z,4.14
2016-02-29T02:01:35.840Z,4.16
2016-02-29T02:02:35.813Z,4.17
2016-02-29T02:03:35.800Z,4.26
2016-02-29T02:04:35.772Z,4.2
2016-02-29T02:05:35.777Z,4.14
2016-02-29T02:06:35.586Z,4.17
2016-02-29T02:07:35.740Z,4.26
2016-02-29T02:08:35.737Z,4.17
2016-02-29T02:09:35.734Z,4.19
2016-02-29T02:10:35.732Z,4.22
2016-02-29T02:11:35.733Z,4.12
2016-02-29T02:12:35.734Z,4.16
2016-02-29T02:13:35.703Z,4.24
2016-02-29T02:14:35.720Z,4.19
2016-02-29T02:15:35.690Z,4.23
2016-02-29T02:16:35.692Z,4.23
2016-02-29T02:17:35.678Z,4.23
2016-02-29T02:18:35.680Z,4.26
2016-02-29T02:19:35.681Z,4.24
2016-02-29T02:20:35.668Z,4.17
2016-02-29T02:21:35.670Z,4.24
2016-02-29T02:22:35.659Z,4.24
2016-02-29T02:23:35.692Z,4.24
2016-02-29T02:24:35.664Z,4.22
2016-02-29T02:25:35.651Z,4.28
2016-02-29T02:26:35.684Z,4.24
2016-02-29T02:27:35.640Z,4.19
2016-02-29T02:28:35.642Z,4.26
2016-02-29T02:29:35.645Z,4.16
2016-02-29T02:30:35.632Z,4.23
2016-02-29T02:31:35.620Z,4.23
2016-02-29T02:32:35.623Z,4.12
2016-02-29T02:33:35.625Z,4.17
2016-02-29T02:34:35.628Z,4.14
2016-02-29T02:35:35.615Z,4.17
2016-02-29T02:36:35.602Z,4.2
2016-02-29T02:37:35.605Z,4.17
2016-02-29T02:38:35.591Z,4.14
2016-02-29T02:39:35.594Z,4.16
2016-02-29T02:40:35.597Z,4.16
2016-02-29T02:41:35.599Z,4.16
2016-02-29T02:42:35.587Z,4.14
2016-02-29T02:43:35.574Z,4.16
2016-02-29T02:44:35.577Z,4.13
2016-02-29T02:45:35.579Z,4.17
2016-02-29T02:46:35.566Z,4.16
2016-02-29T02:47:35.569Z,4.16
2016-02-29T02:48:35.556Z,4.17
2016-02-29T02:49:35.573Z,4.19
2016-02-29T02:50:35.577Z,4.22
2016-02-29T02:51:35.548Z,4.19
2016-02-29T02:52:35.551Z,4.22
2016-02-29T02:53:35.554Z,4.19
2016-02-29T02:54:35.525Z,4.23
2016-02-29T02:55:35.528Z,4.17
2016-02-29T02:56:35.578Z,4.17
2016-02-29T02:57:35.517Z,4.19
2016-02-29T02:58:35.537Z,4.14
2016-02-29T02:59:35.508Z,4.2
2016-02-29T03:00:35.526Z,4.16
2016-02-29T03:01:35.528Z,4.19
2016-02-29T03:02:35.500Z,4.2
2016-02-29T03:03:35.503Z,4.19
2016-02-29T03:04:35.522Z,4.14
2016-02-29T03:05:35.492Z,4.24
2016-02-29T03:06:34.745Z,4.19
2016-02-29T03:07:35.483Z,4.23
2016-02-29T03:08:35.485Z,4.23
2016-02-29T03:09:35.488Z,4.26
2016-02-29T03:10:35.475Z,4.19
2016-02-29T03:11:35.477Z,4.26
2016-02-29T03:12:35.465Z,4.26
2016-02-29T03:13:35.452Z,4.26
2016-02-29T03:14:35.454Z,4.23
2016-02-29T03:15:35.457Z,4.23
2016-02-29T03:16:35.476Z,4.28
2016-02-29T03:17:35.447Z,4.23
2016-02-29T03:18:35.449Z,4.24
2016-02-29T03:19:35.468Z,4.28
2016-02-29T03:20:35.439Z,4.23
2016-02-29T03:21:35.442Z,4.23
2016-02-29T03:22:35.428Z,4.28
2016-02-29T03:23:35.432Z,4.22
2016-02-29T03:24:35.418Z,4.24
2016-02-29T03:25:35.421Z,4.23
2016-02-29T03:26:35.423Z,4.28
2016-02-29T03:27:35.411Z,4.22
2016-02-29T03:28:35.414Z,4.26
2016-02-29T03:29:35.417Z,4.23
2016-02-29T03:30:35.404Z,4.3
2016-02-29T03:31:35.391Z,4.31
2016-02-29T03:32:35.394Z,4.24
2016-02-29T03:33:35.411Z,4.28
2016-02-29T03:34:35.384Z,4.24
2016-02-29T03:35:35.386Z,4.31
2016-02-29T03:36:35.373Z,4.26
2016-02-29T03:37:35.375Z,4.23
2016-02-29T03:38:35.378Z,4.3
2016-02-29T03:39:35.365Z,4.28
2016-02-29T03:40:35.368Z,4.24
2016-02-29T03:41:35.354Z,4.28
2016-02-29T03:42:35.357Z,4.3
2016-02-29T03:43:35.345Z,4.24
2016-02-29T03:44:35.347Z,4.24
2016-02-29T03:45:35.349Z,4.23
2016-02-29T03:46:35.352Z,4.31
2016-02-29T03:47:35.387Z,4.26
2016-02-29T03:48:35.421Z,4.3
2016-02-29T03:49:35.408Z,4.19
2016-02-29T03:50:35.332Z,4.24
2016-02-29T03:51:35.320Z,4.26
2016-02-29T03:52:35.322Z,4.24
2016-02-29T03:53:35.310Z,4.22
2016-02-29T03:54:35.312Z,4.28
2016-02-29T03:55:35.315Z,4.28
2016-02-29T03:56:35.317Z,4.24
2016-02-29T03:57:35.320Z,4.24
2016-02-29T03:58:35.307Z,4.19
2016-02-29T03:59:35.310Z,4.24
2016-02-29T04:00:35.297Z,4.28
2016-02-29T04:01:35.284Z,4.24
2016-02-29T04:02:35.303Z,4.24
2016-02-29T04:03:35.274Z,4.24
2016-02-29T04:04:35.276Z,4.24
2016-02-29T04:05:35.264Z,4.23
2016-02-29T04:06:35.267Z,4.23
2016-02-29T04:07:35.269Z,4.26
2016-02-29T04:08:35.302Z,4.22
2016-02-29T04:09:35.243Z,4.22
2016-02-29T04:10:35.261Z,4.26
2016-02-29T04:11:35.248Z,4.23
2016-02-29T04:12:35.235Z,4.14
2016-02-29T04:13:35.238Z,4.26
2016-02-29T04:14:35.241Z,4.17
2016-02-29T04:15:35.227Z,4.28
2016-02-29T04:16:35.246Z,4.19
2016-02-29T04:17:35.217Z,4.23
2016-02-29T04:18:35.236Z,4.23
2016-02-29T04:19:35.223Z,4.22
2016-02-29T04:20:35.226Z,4.23
2016-02-29T04:21:35.197Z,4.28
2016-02-29T04:22:35.199Z,4.24
2016-02-29T04:23:35.202Z,4.23
2016-02-29T04:24:35.064Z,4.23
2016-02-29T04:25:35.223Z,4.19
2016-02-29T04:26:35.179Z,4.24
2016-02-29T04:27:35.198Z,4.19
2016-02-29T04:28:35.186Z,4.19
2016-02-29T04:29:35.172Z,4.23
2016-02-29T04:30:35.207Z,4.22
2016-02-29T04:31:35.210Z,4.26
2016-02-29T04:32:35.165Z,4.14
2016-02-29T04:33:35.152Z,4.28
2016-02-29T04:34:35.154Z,4.26
2016-02-29T04:35:35.158Z,4.26
2016-02-29T04:36:35.160Z,4.26
2016-02-29T04:37:35.148Z,4.28
2016-02-29T04:38:35.134Z,4.24
2016-02-29T04:39:35.137Z,4.3
2016-02-29T04:40:35.156Z,4.22
2016-02-29T04:41:35.142Z,4.23
2016-02-29T04:42:35.129Z,4.23
2016-02-29T04:43:35.132Z,4.26
2016-02-29T04:44:35.119Z,4.28
2016-02-29T04:45:35.106Z,4.26
2016-02-29T04:46:35.109Z,4.24
2016-02-29T04:47:35.111Z,4.32
2016-02-29T04:48:35.099Z,4.28
2016-02-29T04:49:35.101Z,4.24
2016-02-29T04:50:35.089Z,4.24
2016-02-29T04:51:35.091Z,4.28
2016-02-29T04:52:35.109Z,4.26
2016-02-29T04:53:35.081Z,4.28
2016-02-29T04:54:35.068Z,4.26
2016-02-29T04:55:35.086Z,4.22
2016-02-29T04:56:35.089Z,4.28
2016-02-29T04:57:35.077Z,4.28
2016-02-29T04:58:35.063Z,4.28
2016-02-29T04:59:35.066Z,4.2
2016-02-29T05:00:35.052Z,4.28
2016-02-29T05:01:35.056Z,4.26
2016-02-29T05:02:35.058Z,4.24
2016-02-29T05:03:35.046Z,4.24
2016-02-29T05:04:35.048Z,4.26
2016-02-29T05:05:35.051Z,4.26
2016-02-29T05:06:35.041Z,4.26
2016-02-29T05:07:35.059Z,4.31
2016-02-29T05:08:35.030Z,4.23
2016-02-29T05:09:35.033Z,4.26
2016-02-29T05:10:35.020Z,4.34
2016-02-29T05:11:35.023Z,4.23
2016-02-29T05:12:35.025Z,4.3
2016-02-29T05:13:35.059Z,4.26
2016-02-29T05:14:35.063Z,4.26
2016-02-29T05:15:35.003Z,4.28
2016-02-29T05:16:35.006Z,4.3
2016-02-29T05:17:34.992Z,4.26
2016-02-29T05:18:34.995Z,4.3
2016-02-29T05:19:34.997Z,4.24
2016-02-29T05:20:34.984Z,4.32
2016-02-29T05:21:34.987Z,4.31
2016-02-29T05:22:34.989Z,4.35
2016-02-29T05:23:34.992Z,4.34
2016-02-29T05:24:34.964Z,4.26
2016-02-29T05:25:34.982Z,4.3
2016-02-29T05:26:34.969Z,4.24
2016-02-29T05:27:34.972Z,4.32
2016-02-29T05:28:34.944Z,4.28
2016-02-29T05:29:34.961Z,4.3
2016-02-29T05:30:34.949Z,4.3
2016-02-29T05:31:34.966Z,4.26
2016-02-29T05:32:34.954Z,4.26
2016-02-29T05:33:34.942Z,4.3
2016-02-29T05:34:34.944Z,4.28
2016-02-29T05:35:34.932Z,4.22
2016-02-29T05:36:34.918Z,4.24
2016-02-29T05:37:34.921Z,4.28
2016-02-29T05:38:34.908Z,4.22
2016-02-29T05:39:34.911Z,4.3
2016-02-29T05:40:34.913Z,4.24
2016-02-29T05:41:34.901Z,4.23
2016-02-29T05:42:34.903Z,4.3
2016-02-29T05:43:34.891Z,4.26
2016-02-29T05:44:34.892Z,4.26
2016-02-29T05:45:34.880Z,4.26
2016-02-29T05:46:34.899Z,4.28
2016-02-29T05:47:34.901Z,4.26
2016-02-29T05:48:34.888Z,4.28
2016-02-29T05:49:34.876Z,4.3
2016-02-29T05:50:34.862Z,4.26
2016-02-29T05:51:34.865Z,4.28
2016-02-29T05:52:34.884Z,4.31
2016-02-29T05:53:34.855Z,4.26
2016-02-29T05:54:34.842Z,4.23
2016-02-29T05:55:34.860Z,4.26
2016-02-29T05:56:34.863Z,4.24
2016-02-29T05:57:34.967Z,4.3
2016-02-29T05:58:34.905Z,4.3
2016-02-29T05:59:34.724Z,4.26
2016-02-29T06:00:34.870Z,4.3
2016-02-29T06:01:34.819Z,4.28
2016-02-29T06:02:34.822Z,4.22
2016-02-29T06:03:34.841Z,4.31
2016-02-29T06:04:34.827Z,4.26
2016-02-29T06:05:34.831Z,4.3
2016-02-29T06:06:34.802Z,4.23
2016-02-29T06:07:34.820Z,4.22
2016-02-29T06:08:34.791Z,4.26
2016-02-29T06:09:34.794Z,4.26
2016-02-29T06:10:34.797Z,4.22
2016-02-29T06:11:34.800Z,4.26
2016-02-29T06:12:34.771Z,4.28
2016-02-29T06:13:34.774Z,4.23
2016-02-29T06:14:34.776Z,4.26
2016-02-29T06:15:34.780Z,4.23
2016-02-29T06:16:34.766Z,4.22
2016-02-29T06:17:36.668Z,4.24
2016-02-29T06:18:34.764Z,4.24
2016-02-29T06:19:34.766Z,4.24
2016-02-29T06:20:34.738Z,4.26
2016-02-29T06:21:34.740Z,4.24
2016-02-29T06:22:34.759Z,4.23
2016-02-29T06:23:34.746Z,4.3
2016-02-29T06:24:34.733Z,4.26
2016-02-29T06:25:34.751Z,4.31
2016-02-29T06:26:34.723Z,4.31
2016-02-29T06:27:34.709Z,4.28
2016-02-29T06:28:34.712Z,4.3
2016-02-29T06:29:34.715Z,4.32
2016-02-29T06:30:34.718Z,4.31
2016-02-29T06:31:34.720Z,4.31
2016-02-29T06:32:34.708Z,4.28
2016-02-29T06:33:34.725Z,4.23
2016-02-29T06:34:34.697Z,4.24
2016-02-29T06:35:34.684Z,4.26
2016-02-29T06:36:34.703Z,4.31
2016-02-29T06:37:34.690Z,4.28
2016-02-29T06:38:34.677Z,4.28
2016-02-29T06:39:34.680Z,4.3
2016-02-29T06:40:34.682Z,4.31
2016-02-29T06:41:34.669Z,4.28
2016-02-29T06:42:34.672Z,4.26
2016-02-29T06:43:34.659Z,4.26
2016-02-29T06:44:34.677Z,4.26
2016-02-29T06:45:34.680Z,4.23
2016-02-29T06:46:34.651Z,4.23
2016-02-29T06:47:34.639Z,4.23
2016-02-29T06:48:34.641Z,4.31
2016-02-29T06:49:34.644Z,4.31
2016-02-29T06:50:34.646Z,4.26
2016-02-29T06:51:34.634Z,4.26
2016-02-29T06:52:34.621Z,4.23
2016-02-29T06:53:34.623Z,4.24
2016-02-29T06:54:34.610Z,4.22
2016-02-29T06:55:34.613Z,4.24
2016-02-29T06:56:34.601Z,4.26
2016-02-29T06:57:34.603Z,4.26
2016-02-29T06:58:34.606Z,4.23
2016-02-29T06:59:34.592Z,4.19
2016-02-29T07:00:34.596Z,4.24
2016-02-29T07:01:34.614Z,4.26
2016-02-29T07:02:34.601Z,4.26
2016-02-29T07:03:34.587Z,4.28
2016-02-29T07:04:34.575Z,4.26
2016-02-29T07:05:34.609Z,4.3
2016-02-29T07:06:34.564Z,4.28
2016-02-29T07:07:34.567Z,4.23
2016-02-29T07:08:34.555Z,4.26
2016-02-29T07:09:34.557Z,4.3
2016-02-29T07:10:34.560Z,4.24
2016-02-29T07:11:34.547Z,4.26
2016-02-29T07:12:34.549Z,4.32
2016-02-29T07:13:34.552Z,4.24
2016-02-29T07:14:34.571Z,4.24
2016-02-29T07:15:34.527Z,4.32
2016-02-29T07:16:34.529Z,4.32
2016-02-29T07:17:34.516Z,4.37
2016-02-29T07:18:34.535Z,4.32
2016-02-29T07:19:34.522Z,4.4
2016-02-29T07:20:34.508Z,4.37
2016-02-29T07:21:34.511Z,4.34
2016-02-29T07:22:34.513Z,4.34
2016-02-29T07:23:34.501Z,4.35
2016-02-29T07:24:34.504Z,4.32
2016-02-29T07:25:34.506Z,4.3
2016-02-29T07:26:34.494Z,4.32
2016-02-29T07:27:34.496Z,4.34
2016-02-29T07:28:34.468Z,4.23
2016-02-29T07:29:34.486Z,4.32
2016-02-29T07:30:34.489Z,4.24
2016-02-29T07:31:34.476Z,4.24
2016-02-29T07:32:34.478Z,4.32
2016-02-29T07:33:34.450Z,4.31
2016-02-29T07:34:34.453Z,4.31
2016-02-29T07:35:34.455Z,4.37
2016-02-29T07:36:34.458Z,4.32
2016-02-29T07:37:34.445Z,4.4
2016-02-29T07:38:34.463Z,4.35
2016-02-29T07:39:34.435Z,4.42
2016-02-29T07:40:34.437Z,4.37
2016-02-29T07:41:34.425Z,4.41
2016-02-29T07:42:34.427Z,4.4
2016-02-29T07:43:34.430Z,4.42
2016-02-29T07:44:34.433Z,4.4
2016-02-29T07:45:34.436Z,4.41
2016-02-29T07:46:34.438Z,4.4
2016-02-29T07:47:34.425Z,4.37
2016-02-29T07:48:34.413Z,4.41
2016-02-29T07:49:34.399Z,4.41
2016-02-29T07:50:34.402Z,4.37
2016-02-29T07:51:34.388Z,4.38
2016-02-29T07:52:34.391Z,4.44
2016-02-29T07:53:34.394Z,4.4
2016-02-29T07:54:34.382Z,4.41
2016-02-29T07:55:34.368Z,4.38
2016-02-29T07:56:34.387Z,4.37
2016-02-29T07:57:34.374Z,4.38
2016-02-29T07:58:34.221Z,4.41
2016-02-29T07:59:34.363Z,4.42
2016-02-29T08:00:34.366Z,4.37
2016-02-29T08:01:34.368Z,4.38
2016-02-29T08:02:34.340Z,4.37
2016-02-29T08:03:34.342Z,4.38
2016-02-29T08:04:34.345Z,4.34
2016-02-29T08:05:34.365Z,4.38
2016-02-29T08:06:34.351Z,4.38
2016-02-29T08:07:34.338Z,4.44
2016-02-29T08:08:34.325Z,4.4
2016-02-29T08:09:34.328Z,4.45
2016-02-29T08:10:34.331Z,4.48
2016-02-29T08:11:34.334Z,4.49
2016-02-29T08:12:34.320Z,4.48
2016-02-29T08:13:34.308Z,4.4
2016-02-29T08:14:34.310Z,4.45
2016-02-29T08:15:34.297Z,4.42
2016-02-29T08:16:34.299Z,4.52
2016-02-29T08:17:34.302Z,4.5
2016-02-29T08:18:34.289Z,4.49
2016-02-29T08:19:34.292Z,4.5
2016-02-29T08:20:34.310Z,4.49
2016-02-29T08:21:34.282Z,4.52
2016-02-29T08:22:34.284Z,4.44
2016-02-29T08:23:34.272Z,4.44
2016-02-29T08:24:34.275Z,4.45
2016-02-29T08:25:34.262Z,4.52
2016-02-29T08:26:34.280Z,4.5
2016-02-29T08:27:34.283Z,4.55
2016-02-29T08:28:34.254Z,4.48
2016-02-29T08:29:34.256Z,4.56
2016-02-29T08:30:34.243Z,4.49
2016-02-29T08:31:34.247Z,4.52
2016-02-29T08:32:34.234Z,4.52
2016-02-29T08:33:34.237Z,4.55
2016-02-29T08:34:34.239Z,4.59
2016-02-29T08:35:34.226Z,4.49
2016-02-29T08:36:34.228Z,4.59
2016-02-29T08:37:34.231Z,4.5
2016-02-29T08:38:34.218Z,4.59
2016-02-29T08:39:34.206Z,4.6
2016-02-29T08:40:34.209Z,4.56
2016-02-29T08:41:34.211Z,4.67
2016-02-29T08:42:34.214Z,4.6
2016-02-29T08:43:34.216Z,4.63
2016-02-29T08:44:34.204Z,4.62
2016-02-29T08:45:34.628Z,4.62
2016-02-29T08:46:34.194Z,4.59
2016-02-29T08:47:34.180Z,4.62
2016-02-29T08:48:34.183Z,4.59
2016-02-29T08:49:34.169Z,4.67
2016-02-29T08:50:34.188Z,4.6
2016-02-29T08:51:34.409Z,4.62
2016-02-29T08:52:34.163Z,4.62
2016-02-29T08:53:34.166Z,4.66
2016-02-29T08:54:34.168Z,4.7
2016-02-29T08:55:34.171Z,4.62
2016-02-29T08:56:34.173Z,4.59
2016-02-29T08:57:34.160Z,4.62
2016-02-29T08:58:34.162Z,4.68
2016-02-29T08:59:34.134Z,4.7
2016-02-29T09:00:34.138Z,4.63
2016-02-29T09:01:34.155Z,4.62
2016-02-29T09:02:34.127Z,4.58
2016-02-29T09:03:34.145Z,4.68
2016-02-29T09:04:34.116Z,4.62
2016-02-29T09:05:33.967Z,4.6
2016-02-29T09:06:34.153Z,4.73
2016-02-29T09:07:34.139Z,4.59
2016-02-29T09:08:34.111Z,4.66
2016-02-29T09:09:34.113Z,4.68
2016-02-29T09:10:34.116Z,4.67
2016-02-29T09:11:34.087Z,4.73
2016-02-29T09:12:34.090Z,4.71
2016-02-29T09:13:34.077Z,4.66
2016-02-29T09:14:34.096Z,4.71
2016-02-29T09:15:34.083Z,4.7
2016-02-29T09:16:34.101Z,4.73
2016-02-29T09:17:34.071Z,4.73
2016-02-29T09:18:34.060Z,4.74
2016-02-29T09:19:34.063Z,4.71
2016-02-29T09:20:34.065Z,4.6
2016-02-29T09:21:34.083Z,4.71
2016-02-29T09:22:34.054Z,4.58
2016-02-29T09:23:34.057Z,4.66
2016-02-29T09:24:34.028Z,4.66
2016-02-29T09:25:34.047Z,4.71
2016-02-29T09:26:34.035Z,4.73
2016-02-29T09:27:34.037Z,4.71
2016-02-29T09:28:34.071Z,4.71
2016-02-29T09:29:34.026Z,4.71
2016-02-29T09:30:34.028Z,4.68
2016-02-29T09:31:34.016Z,4.74
2016-02-29T09:32:34.035Z,4.73
2016-02-29T09:33:34.006Z,4.78
2016-02-29T09:34:34.025Z,4.75
2016-02-29T09:35:34.011Z,4.73
2016-02-29T09:36:33.998Z,4.78
2016-02-29T09:37:34.001Z,4.71
2016-02-29T09:38:33.989Z,4.71
2016-02-29T09:39:33.991Z,4.77
2016-02-29T09:40:33.994Z,4.75
2016-02-29T09:41:33.980Z,4.77
2016-02-29T09:42:33.999Z,4.73
2016-02-29T09:43:33.985Z,4.8
2016-02-29T09:44:33.816Z,4.7
2016-02-29T09:45:33.960Z,4.73
2016-02-29T09:46:33.963Z,4.71
2016-02-29T10:16:16.434Z,4.73
2016-02-29T10:16:28.980Z,4.7
2016-02-29T10:17:28.998Z,4.74
2016-02-29T10:18:28.971Z,4.82
2016-02-29T10:19:28.988Z,4.8
2016-02-29T10:20:28.960Z,4.8
2016-02-29T10:21:28.978Z,4.73
2016-02-29T10:22:28.950Z,4.73
2016-02-29T10:23:28.967Z,4.78
2016-02-29T10:24:28.955Z,4.78
2016-02-29T10:25:28.958Z,4.73
2016-02-29T10:26:28.945Z,4.77
2016-02-29T10:27:28.931Z,4.74
2016-02-29T10:28:28.934Z,4.75
2016-02-29T10:29:28.937Z,4.74
2016-02-29T10:30:28.940Z,4.74
2016-02-29T10:31:28.177Z,4.77
2016-02-29T10:32:28.930Z,4.75
2016-02-29T10:33:28.932Z,4.75
2016-02-29T10:34:28.919Z,4.7
2016-02-29T10:35:28.906Z,4.73
2016-02-29T10:36:28.909Z,4.73
2016-02-29T10:37:28.911Z,4.74
2016-02-29T10:38:28.914Z,4.7
2016-02-29T10:39:28.917Z,4.75
2016-02-29T10:40:28.919Z,4.8
2016-02-29T10:41:28.907Z,4.7
2016-02-29T10:42:28.722Z,4.75
2016-02-29T10:43:28.881Z,4.86
2016-02-29T10:44:28.899Z,4.67
2016-02-29T10:45:28.871Z,4.71
2016-02-29T10:46:28.874Z,4.73
2016-02-29T10:47:28.876Z,4.68
2016-02-29T10:48:28.863Z,4.78
2016-02-29T10:49:28.726Z,4.75
2016-02-29T10:50:28.868Z,4.77
2016-02-29T10:51:28.887Z,4.75
2016-02-29T10:52:28.859Z,4.86
2016-02-29T10:53:28.861Z,4.75
2016-02-29T10:54:28.848Z,4.74
2016-02-29T10:55:28.867Z,4.75
2016-02-29T10:56:28.869Z,4.7
2016-02-29T10:57:28.856Z,4.8
2016-02-29T10:58:28.859Z,4.74
2016-02-29T10:59:28.861Z,4.74
2016-02-29T11:00:28.833Z,4.73
2016-02-29T11:01:28.820Z,4.8
2016-02-29T11:02:28.839Z,4.68
2016-02-29T11:03:28.825Z,4.75
2016-02-29T11:04:28.828Z,4.75
2016-02-29T11:05:28.820Z,4.71
2016-02-29T11:06:28.804Z,4.77
2016-02-29T11:07:28.811Z,4.74
2016-02-29T11:08:28.772Z,4.75
2016-02-29T11:09:28.764Z,4.75
2016-02-29T11:10:28.740Z,4.75
2016-02-29T11:11:28.733Z,4.68
2016-02-29T11:12:28.747Z,4.75
2016-02-29T11:13:28.715Z,4.7
2016-02-29T11:14:28.713Z,4.74
2016-02-29T11:15:28.713Z,4.77
2016-02-29T11:16:28.712Z,4.75
2016-02-29T11:17:28.697Z,4.71
2016-02-29T11:18:28.698Z,4.8
2016-02-29T11:19:28.685Z,4.6
2016-02-29T11:20:28.717Z,4.66
2016-02-29T11:21:28.672Z,4.66
2016-02-29T11:22:28.690Z,4.6
2016-02-29T11:23:28.660Z,4.67
2016-02-29T11:24:28.694Z,4.6
2016-02-29T11:25:28.665Z,4.53
2016-02-29T11:26:28.667Z,4.48
2016-02-29T11:27:28.638Z,4.52
2016-02-29T11:28:28.640Z,4.5
2016-02-29T11:29:28.659Z,4.53
2016-02-29T11:30:28.630Z,4.52
2016-02-29T11:31:28.633Z,4.52
2016-02-29T11:32:28.619Z,4.48
2016-02-29T11:33:28.622Z,4.49
2016-02-29T11:34:28.641Z,4.49
2016-02-29T11:35:28.627Z,4.5
2016-02-29T11:36:28.630Z,4.5
2016-02-29T11:37:28.602Z,4.48
2016-02-29T11:38:28.635Z,4.49
2016-02-29T11:39:28.638Z,4.49
2016-02-29T11:40:28.610Z,4.48
2016-02-29T11:41:28.596Z,4.42
2016-02-29T11:42:28.599Z,4.44
2016-02-29T11:43:28.586Z,4.4
2016-02-29T11:44:28.588Z,4.38
2016-02-29T11:45:28.591Z,4.38
2016-02-29T11:46:28.578Z,4.38
2016-02-29T11:47:28.582Z,4.41
2016-02-29T11:48:28.568Z,4.38
2016-02-29T11:49:28.571Z,4.4
2016-02-29T11:50:28.559Z,4.4
2016-02-29T11:51:28.561Z,4.4
2016-02-29T11:52:28.564Z,4.42
2016-02-29T11:53:28.551Z,4.38
2016-02-29T11:54:28.570Z,4.32
2016-02-29T11:55:28.540Z,4.4
2016-02-29T11:56:28.543Z,4.38
2016-02-29T11:57:28.530Z,4.48
2016-02-29T11:58:28.533Z,4.41
2016-02-29T11:59:28.536Z,4.4
2016-02-29T12:00:28.507Z,4.4
2016-02-29T12:01:28.525Z,4.41
2016-02-29T12:02:28.512Z,4.4
2016-02-29T12:03:28.530Z,4.37
2016-02-29T12:04:28.517Z,4.44
2016-02-29T12:05:28.520Z,4.45
2016-02-29T12:06:28.523Z,4.37
2016-02-29T12:07:28.495Z,4.38
2016-02-29T12:08:28.497Z,4.37
2016-02-29T12:09:28.500Z,4.41
2016-02-29T12:10:28.502Z,4.4
2016-02-29T12:11:28.490Z,4.4
2016-02-29T12:12:28.493Z,4.34
2016-02-29T12:13:28.480Z,4.35
2016-02-29T12:14:28.466Z,4.34
2016-02-29T12:15:28.469Z,4.34
2016-02-29T12:16:28.457Z,4.4
2016-02-29T12:17:28.460Z,4.44
2016-02-29T12:18:28.462Z,4.37
2016-02-29T12:19:28.449Z,4.42
2016-02-29T12:20:28.452Z,4.44
2016-02-29T12:21:28.454Z,4.44
2016-02-29T12:22:28.457Z,4.34
2016-02-29T12:23:28.773Z,4.44
2016-02-29T12:24:28.446Z,4.45
2016-02-29T12:25:28.418Z,4.45
2016-02-29T12:26:28.420Z,4.41
2016-02-29T12:27:28.423Z,4.45
2016-02-29T12:28:28.411Z,4.4
2016-02-29T12:29:28.413Z,4.4
2016-02-29T12:30:28.416Z,4.4
2016-02-29T12:31:28.400Z,4.38
2016-02-29T12:32:28.387Z,4.37
2016-02-29T12:33:28.389Z,4.4
2016-02-29T12:34:28.393Z,4.37
2016-02-29T12:35:28.380Z,4.34
2016-02-29T12:36:28.383Z,4.38
2016-02-29T12:37:28.370Z,4.37
2016-02-29T12:38:28.372Z,4.38
2016-02-29T12:39:28.375Z,4.35
2016-02-29T12:40:28.377Z,4.31
2016-02-29T12:41:28.365Z,4.24
2016-02-29T12:42:28.352Z,4.28
2016-02-29T12:43:28.402Z,4.28
2016-02-29T12:44:28.357Z,4.22
2016-02-29T12:45:28.344Z,4.26
2016-02-29T12:46:28.346Z,4.26
2016-02-29T12:47:28.335Z,4.24
2016-02-29T12:48:28.337Z,4.23
2016-02-29T12:49:28.324Z,4.24
2016-02-29T12:50:28.326Z,4.26
2016-02-29T12:51:28.329Z,4.16
2016-02-29T12:52:28.332Z,4.17
2016-02-29T12:53:28.319Z,4.16
2016-02-29T12:54:28.321Z,4.14
2016-02-29T12:55:28.309Z,4.16
2016-02-29T12:56:28.312Z,4.17
2016-02-29T12:57:28.314Z,4.12
2016-02-29T12:58:28.317Z,4.17
2016-02-29T12:59:28.287Z,4.17
2016-02-29T13:00:28.290Z,4.05
2016-02-29T13:01:28.309Z,4.04
2016-02-29T13:02:28.281Z,4.14
2016-02-29T13:03:28.283Z,4.1
2016-02-29T13:04:28.270Z,4.1
2016-02-29T13:05:28.263Z,4.02
2016-02-29T13:06:28.251Z,4.1
2016-02-29T13:07:28.253Z,4.1
2016-02-29T13:08:28.271Z,4.01
2016-02-29T13:09:28.258Z,4.05
2016-02-29T13:10:28.308Z,4.16
2016-02-29T13:11:28.233Z,4.23
2016-02-29T13:12:28.236Z,4.12
2016-02-29T13:13:28.176Z,4.16
2016-02-29T13:14:28.241Z,4.05
2016-02-29T13:15:28.228Z,4.04
2016-02-29T13:16:28.230Z,4.05
2016-02-29T13:17:28.077Z,4.08
2016-02-29T13:18:28.220Z,4.12
2016-02-29T13:19:28.208Z,4.12
2016-02-29T13:20:28.210Z,4.12
2016-02-29T13:21:28.291Z,4.1
2016-02-29T13:22:28.199Z,4.12
2016-02-29T13:23:28.218Z,4.06
2016-02-29T13:24:28.205Z,4.12
2016-02-29T13:25:28.192Z,4.19
2016-02-29T13:26:28.180Z,4.1
2016-02-29T13:27:28.197Z,4.13
2016-02-29T13:28:28.185Z,4.19
2016-02-29T13:29:28.171Z,4.19
2016-02-29T13:30:28.190Z,4.1
2016-02-29T13:31:28.177Z,4.14
2016-02-29T13:32:28.165Z,4.06
2016-02-29T13:33:28.167Z,4.12
2016-02-29T13:34:28.170Z,4.06
2016-02-29T13:35:28.141Z,4.08
2016-02-29T13:36:28.159Z,4.04
2016-02-29T13:37:28.146Z,4.1
2016-02-29T13:38:28.149Z,4.16
2016-02-29T13:39:28.371Z,4.1
2016-02-29T13:40:28.123Z,4.16
2016-02-29T13:41:28.110Z,4.08
2016-02-29T13:42:28.112Z,4.04
2016-02-29T13:43:28.101Z,4.02
2016-02-29T13:44:28.103Z,4.12
2016-02-29T13:45:28.106Z,4.02
2016-02-29T13:46:28.108Z,4.05
2016-02-29T13:47:28.080Z,4.1
2016-02-29T13:48:28.097Z,4.14
2016-02-29T13:49:28.085Z,4.04